Time;durP1;ratioP1;P1;durP2;ratioP2;P2;SDS_P1;SDS_P2;PMS_P1;PMS_P2;Temp;Humidity;BMP_temperature;BMP_pressure;BME280_temperature;BME280_humidity;BME280_pressure;Samples;Min_cycle;Max_cycle;Signal;HPM_P1;HPM_P2
2022/01/29 00:01:01;;;;;;;0.10;0.10;;;6.10;99.90;;;;;;5133880;28;20082;-87
2022/01/29 00:03:30;;;;;;;0.05;0.05;;;6.10;99.90;;;;;;5117327;28;20035;-87
2022/01/29 00:05:58;;;;;;;0.10;0.10;;;6.10;99.90;;;;;;5101259;28;20036;-90
2022/01/29 00:08:26;;;;;;;0.10;0.10;;;6.10;99.90;;;;;;5116750;28;20130;-90
2022/01/29 00:10:56;;;;;;;0.10;0.10;;;6.10;99.90;;;;;;5133452;28;20416;-87
2022/01/29 00:13:23;;;;;;;0.10;0.10;;;6.10;99.90;;;;;;5101347;28;20036;-87
2022/01/29 00:15:50;;;;;;;0.10;0.10;;;6.10;99.90;;;;;;5116439;28;20499;-90
2022/01/29 00:18:16;;;;;;;0.50;0.50;;;6.10;99.90;;;;;;5116453;28;20506;-88
2022/01/29 00:20:43;;;;;;;0.10;0.10;;;6.30;99.90;;;;;;5116517;28;20036;-91
2022/01/29 00:23:10;;;;;;;0.10;0.10;;;6.20;99.90;;;;;;5133183;28;20412;-87
2022/01/29 00:25:37;;;;;;;0.10;0.10;;;6.10;99.90;;;;;;5116523;28;20043;-87
2022/01/29 00:28:04;;;;;;;0.10;0.10;;;6.20;99.90;;;;;;5116752;28;20039;-87
2022/01/29 00:30:37;;;;;;;0.10;0.10;;;6.20;99.90;;;;;;5116304;28;20039;-88
2022/01/29 00:33:04;;;;;;;1.35;0.52;;;6.20;99.90;;;;;;5117670;28;20126;-90
2022/01/29 00:35:31;;;;;;;0.10;0.10;;;6.20;99.90;;;;;;5133395;28;20513;-87
2022/01/29 00:37:58;;;;;;;0.10;0.10;;;6.20;99.90;;;;;;5085611;28;20035;-90
2022/01/29 00:40:25;;;;;;;0.10;0.10;;;6.80;99.90;;;;;;5113873;28;20043;-88
2022/01/29 00:42:52;;;;;;;0.30;0.30;;;6.20;99.90;;;;;;5132963;28;20545;-87
2022/01/29 00:45:19;;;;;;;0.10;0.10;;;6.20;99.90;;;;;;5098187;28;20138;-90
2022/01/29 00:47:47;;;;;;;0.10;0.10;;;6.10;99.90;;;;;;5117478;28;20101;-87
2022/01/29 00:50:14;;;;;;;0.00;0.00;;;6.20;99.90;;;;;;5130585;28;20036;-90
2022/01/29 00:52:41;;;;;;;0.10;0.10;;;6.20;99.90;;;;;;5078662;28;20036;-87
2022/01/29 00:55:09;;;;;;;0.10;0.10;;;6.20;99.90;;;;;;5112369;28;20044;-89
2022/01/29 00:57:40;;;;;;;0.55;0.25;;;6.20;99.90;;;;;;5112499;28;20508;-87
2022/01/29 01:00:10;;;;;;;0.00;0.00;;;6.20;99.90;;;;;;5129770;28;20061;-87
2022/01/29 01:02:37;;;;;;;0.47;0.20;;;6.20;99.90;;;;;;5112575;28;20549;-87
2022/01/29 01:05:05;;;;;;;0.28;0.25;;;6.20;99.90;;;;;;5112133;28;20036;-87
2022/01/29 01:07:32;;;;;;;0.20;0.20;;;6.10;99.90;;;;;;5095021;28;20101;-91
2022/01/29 01:09:59;;;;;;;0.10;0.10;;;6.10;99.90;;;;;;5095482;28;20123;-87
2022/01/29 01:12:26;;;;;;;0.10;0.10;;;6.30;99.90;;;;;;5111944;28;20094;-91
2022/01/29 01:14:53;;;;;;;0.10;0.10;;;6.20;99.90;;;;;;5079530;28;20040;-87
2022/01/29 01:17:19;;;;;;;0.08;0.08;;;6.10;99.90;;;;;;5112416;28;20039;-90
2022/01/29 01:19:46;;;;;;;0.10;0.10;;;6.70;99.90;;;;;;5095210;28;20036;-87
2022/01/29 01:22:16;;;;;;;0.10;0.10;;;6.10;99.90;;;;;;5111634;28;20044;-87
2022/01/29 01:24:43;;;;;;;0.10;0.10;;;6.10;99.90;;;;;;5112976;28;20048;-87
2022/01/29 01:27:10;;;;;;;0.17;0.15;;;6.10;99.90;;;;;;5112327;28;20082;-88
2022/01/29 01:29:37;;;;;;;0.10;0.10;;;6.10;99.90;;;;;;5112675;28;20044;-87
2022/01/29 01:32:05;;;;;;;0.10;0.10;;;6.10;99.90;;;;;;5112436;28;20101;-88
2022/01/29 01:34:37;;;;;;;0.10;0.10;;;6.20;99.90;;;;;;5094917;28;20040;-88
2022/01/29 01:37:08;;;;;;;0.10;0.10;;;6.20;99.90;;;;;;5096418;28;20071;-90
2022/01/29 01:39:38;;;;;;;0.10;0.10;;;6.20;99.90;;;;;;5081277;28;20071;-91
2022/01/29 01:42:06;;;;;;;0.10;0.10;;;6.40;99.90;;;;;;5080510;28;20042;-88
2022/01/29 01:44:38;;;;;;;0.10;0.10;;;6.20;99.90;;;;;;5095961;28;20052;-87
2022/01/29 01:47:05;;;;;;;0.10;0.10;;;6.70;99.90;;;;;;5112642;28;20048;-90
2022/01/29 01:49:33;;;;;;;0.10;0.10;;;6.30;99.90;;;;;;5095656;28;20044;-90
2022/01/29 01:51:59;;;;;;;0.32;0.28;;;6.30;99.90;;;;;;5096615;28;20492;-91
2022/01/29 01:54:27;;;;;;;0.10;0.10;;;6.30;99.90;;;;;;5095245;28;20079;-91
2022/01/29 01:56:53;;;;;;;0.10;0.10;;;6.30;99.90;;;;;;5078946;28;20443;-90
2022/01/29 01:59:20;;;;;;;0.10;0.10;;;6.30;99.90;;;;;;5112509;28;20036;-87
2022/01/29 02:01:47;;;;;;;0.00;0.00;;;6.40;99.90;;;;;;5095266;28;20036;-90
2022/01/29 02:04:14;;;;;;;0.10;0.10;;;6.40;99.90;;;;;;5111747;28;20100;-87
2022/01/29 02:06:41;;;;;;;0.10;0.10;;;6.40;99.90;;;;;;5078432;28;20036;-90
2022/01/29 02:09:07;;;;;;;0.00;0.00;;;6.50;99.90;;;;;;5095254;28;20286;-87
2022/01/29 02:11:38;;;;;;;0.10;0.10;;;6.50;99.90;;;;;;5094724;28;20048;-91
2022/01/29 02:14:05;;;;;;;0.10;0.10;;;6.40;99.90;;;;;;5080154;28;20189;-90
2022/01/29 02:16:32;;;;;;;0.10;0.10;;;6.40;99.90;;;;;;5095909;28;20085;-88
2022/01/29 02:18:59;;;;;;;0.00;0.00;;;6.60;99.90;;;;;;5078834;28;20036;-91
2022/01/29 02:21:28;;;;;;;0.10;0.10;;;6.50;99.90;;;;;;5078876;28;20496;-88
2022/01/29 02:23:55;;;;;;;0.00;0.00;;;6.50;99.90;;;;;;5100586;28;20032;-87
2022/01/29 02:26:22;;;;;;;0.00;0.00;;;6.60;99.90;;;;;;5105693;28;20584;-87
2022/01/29 02:28:49;;;;;;;0.10;0.10;;;6.60;99.90;;;;;;5095531;28;20035;-88
2022/01/29 02:31:16;;;;;;;0.10;0.10;;;6.70;99.90;;;;;;5097902;28;20044;-87
2022/01/29 02:33:44;;;;;;;0.20;0.20;;;6.70;99.90;;;;;;5098068;28;20077;-87
2022/01/29 02:36:10;;;;;;;0.10;0.10;;;6.10;99.90;;;;;;5115097;28;20489;-87
2022/01/29 02:38:37;;;;;;;0.10;0.10;;;6.90;99.90;;;;;;5081342;28;20040;-90
2022/01/29 02:41:06;;;;;;;0.10;0.10;;;6.80;99.90;;;;;;5131916;28;20043;-90
2022/01/29 02:43:43;;;;;;;0.10;0.10;;;6.90;99.90;;;;;;5098621;28;20084;-90
2022/01/29 02:48:44;;;;;;;0.10;0.10;;;6.90;99.90;;;;;;5115186;28;20420;-87
2022/01/29 02:51:11;;;;;;;0.10;0.10;;;7.50;99.90;;;;;;5082312;28;20047;-90
2022/01/29 02:53:37;;;;;;;0.00;0.00;;;7.00;99.90;;;;;;5098782;28;20501;-90
2022/01/29 02:56:05;;;;;;;0.10;0.10;;;7.00;99.90;;;;;;5098793;28;20076;-87
2022/01/29 02:58:32;;;;;;;0.10;0.10;;;7.00;99.90;;;;;;5098677;28;20032;-91
2022/01/29 03:00:58;;;;;;;0.68;0.45;;;7.00;99.90;;;;;;5081163;28;20559;-90
2022/01/29 03:03:25;;;;;;;0.10;0.10;;;7.10;99.90;;;;;;5081218;28;20047;-87
2022/01/29 03:05:52;;;;;;;0.10;0.10;;;7.10;99.90;;;;;;5098598;28;20401;-90
2022/01/29 03:08:22;;;;;;;0.00;0.00;;;7.10;99.90;;;;;;5098162;28;20047;-90
2022/01/29 03:10:49;;;;;;;0.10;0.10;;;7.10;99.90;;;;;;5098233;28;20047;-88
2022/01/29 03:13:16;;;;;;;0.10;0.10;;;7.20;99.90;;;;;;5097743;28;20036;-90
2022/01/29 03:15:43;;;;;;;0.10;0.10;;;7.50;99.90;;;;;;5097234;28;20086;-88
2022/01/29 03:18:10;;;;;;;0.10;0.10;;;7.10;99.90;;;;;;5080790;28;20032;-90
2022/01/29 03:20:37;;;;;;;0.10;0.10;;;7.10;99.90;;;;;;5080933;28;20032;-90
2022/01/29 03:23:03;;;;;;;0.10;0.10;;;7.20;99.90;;;;;;5114020;28;20032;-88
2022/01/29 03:25:30;;;;;;;0.00;0.00;;;7.10;99.90;;;;;;5095741;28;20043;-90
2022/01/29 03:27:57;;;;;;;0.10;0.10;;;7.20;99.90;;;;;;5096974;28;20040;-90
2022/01/29 03:30:24;;;;;;;0.00;0.00;;;7.20;99.90;;;;;;5112656;28;20404;-91
2022/01/29 03:32:50;;;;;;;0.00;0.00;;;7.20;99.90;;;;;;5095901;28;20067;-88
2022/01/29 03:35:17;;;;;;;0.10;0.10;;;7.20;99.90;;;;;;5095870;28;20036;-88
2022/01/29 03:37:44;;;;;;;0.10;0.10;;;7.10;99.90;;;;;;5079291;28;20078;-87
2022/01/29 03:40:11;;;;;;;0.00;0.00;;;7.20;99.90;;;;;;5079349;28;20042;-90
2022/01/29 03:42:44;;;;;;;0.00;0.00;;;7.20;99.90;;;;;;5078574;28;20032;-90
2022/01/29 03:45:14;;;;;;;0.10;0.10;;;7.20;99.90;;;;;;5112531;28;20051;-90
2022/01/29 03:47:40;;;;;;;0.00;0.00;;;7.40;99.90;;;;;;5112167;28;20048;-87
2022/01/29 03:50:07;;;;;;;0.20;0.20;;;7.30;99.90;;;;;;5079685;28;20047;-90
2022/01/29 03:52:34;;;;;;;0.10;0.10;;;7.30;99.90;;;;;;5079579;28;20126;-90
2022/01/29 03:55:01;;;;;;;0.10;0.10;;;7.30;99.90;;;;;;5095738;28;20552;-87
2022/01/29 03:57:27;;;;;;;0.10;0.10;;;7.30;99.90;;;;;;5095435;28;20039;-90
2022/01/29 03:59:54;;;;;;;0.32;0.20;;;7.30;99.90;;;;;;5095854;28;20071;-90
2022/01/29 04:02:21;;;;;;;0.10;0.10;;;7.60;99.90;;;;;;5079254;28;20043;-88
2022/01/29 04:04:47;;;;;;;0.35;0.35;;;7.30;99.90;;;;;;5078490;28;20046;-87
2022/01/29 04:07:14;;;;;;;0.00;0.00;;;7.30;99.90;;;;;;5095420;28;20044;-88
2022/01/29 04:09:47;;;;;;;0.10;0.10;;;7.30;99.90;;;;;;5078305;28;20093;-87
2022/01/29 04:12:14;;;;;;;0.10;0.10;;;7.30;99.90;;;;;;5096500;28;20408;-88
2022/01/29 04:14:41;;;;;;;0.10;0.10;;;7.30;99.90;;;;;;5078331;28;20508;-91
2022/01/29 04:17:08;;;;;;;0.00;0.00;;;7.30;99.90;;;;;;5095578;28;20036;-88
2022/01/29 04:19:35;;;;;;;0.10;0.10;;;7.30;99.90;;;;;;5078837;28;20036;-88
2022/01/29 04:22:03;;;;;;;0.05;0.05;;;7.40;99.90;;;;;;5094817;28;20443;-90
2022/01/29 04:24:31;;;;;;;1.45;1.00;;;7.40;99.90;;;;;;5128720;28;20050;-88
2022/01/29 04:26:59;;;;;;;0.10;0.10;;;7.40;99.90;;;;;;5094581;28;20040;-88
2022/01/29 04:29:29;;;;;;;0.10;0.10;;;7.40;99.90;;;;;;5111752;28;20096;-90
2022/01/29 04:34:28;;;;;;;0.10;0.10;;;7.40;99.90;;;;;;5111792;28;20048;-87
2022/01/29 04:36:55;;;;;;;0.00;0.00;;;7.40;99.90;;;;;;5111020;28;20032;-90
2022/01/29 04:39:21;;;;;;;0.00;0.00;;;8.00;99.90;;;;;;5078609;28;20040;-88
2022/01/29 04:41:49;;;;;;;0.03;0.03;;;7.40;99.90;;;;;;5078082;28;20401;-88
2022/01/29 04:44:17;;;;;;;0.00;0.00;;;7.40;99.90;;;;;;5078369;28;20064;-88
2022/01/29 04:46:44;;;;;;;0.10;0.10;;;7.40;99.90;;;;;;5078345;28;20044;-87
2022/01/29 04:49:11;;;;;;;0.10;0.10;;;7.60;99.90;;;;;;5094507;28;20156;-91
2022/01/29 04:51:37;;;;;;;0.17;0.10;;;7.70;99.90;;;;;;5095051;28;20044;-88
2022/01/29 04:54:04;;;;;;;0.00;0.00;;;7.50;99.90;;;;;;5094152;28;20066;-90
2022/01/29 04:56:31;;;;;;;0.05;0.05;;;8.30;99.90;;;;;;5078290;28;20044;-90
2022/01/29 04:58:58;;;;;;;0.00;0.00;;;7.50;99.90;;;;;;5078032;28;20036;-90
2022/01/29 05:01:24;;;;;;;0.10;0.10;;;8.20;99.90;;;;;;5077991;28;20567;-90
2022/01/29 05:03:51;;;;;;;0.00;0.00;;;7.60;99.90;;;;;;5077986;28;20075;-90
2022/01/29 05:06:19;;;;;;;0.08;0.08;;;7.60;99.90;;;;;;5077876;28;20044;-87
2022/01/29 05:08:46;;;;;;;0.00;0.00;;;7.50;99.90;;;;;;5077897;28;20040;-88
2022/01/29 05:11:15;;;;;;;0.00;0.00;;;7.50;99.90;;;;;;5093880;28;20036;-88
2022/01/29 05:13:42;;;;;;;0.00;0.00;;;7.60;99.90;;;;;;5094533;28;20469;-88
2022/01/29 05:27:05;;;;;;;0.10;0.10;;;7.60;99.90;;;;;;5113241;28;20083;-88
2022/01/29 05:29:32;;;;;;;0.00;0.00;;;7.60;99.90;;;;;;5127881;28;20102;-87
2022/01/29 05:32:00;;;;;;;0.10;0.10;;;7.60;99.90;;;;;;5077500;28;20451;-90
2022/01/29 05:34:27;;;;;;;0.10;0.10;;;7.60;99.90;;;;;;5111177;28;20127;-90
2022/01/29 05:36:54;;;;;;;0.10;0.10;;;7.60;99.90;;;;;;5077383;28;20071;-90
2022/01/29 05:39:21;;;;;;;0.35;0.35;;;7.60;99.90;;;;;;5110698;28;20043;-88
2022/01/29 05:41:48;;;;;;;0.20;0.20;;;7.70;99.90;;;;;;5094125;28;20480;-91
2022/01/29 05:44:15;;;;;;;0.10;0.10;;;7.80;99.90;;;;;;5077249;28;20050;-88
2022/01/29 05:46:42;;;;;;;0.10;0.10;;;7.70;99.90;;;;;;5077978;28;20087;-88
2022/01/29 05:49:08;;;;;;;0.00;0.00;;;7.70;99.90;;;;;;5093899;28;20040;-90
2022/01/29 05:51:35;;;;;;;0.10;0.10;;;7.70;99.90;;;;;;5093708;28;20051;-88
2022/01/29 05:54:02;;;;;;;0.10;0.10;;;7.80;99.90;;;;;;5093776;28;20036;-88
2022/01/29 05:56:30;;;;;;;0.10;0.10;;;7.80;99.90;;;;;;5094318;28;20059;-90
2022/01/29 05:58:57;;;;;;;6.13;0.30;;;7.80;99.90;;;;;;5110807;28;20821;-90
2022/01/29 06:01:24;;;;;;;0.00;0.00;;;7.80;99.90;;;;;;5110712;28;20067;-90
2022/01/29 06:03:50;;;;;;;0.00;0.00;;;7.90;99.90;;;;;;5110698;28;20093;-90
2022/01/29 06:06:17;;;;;;;0.00;0.00;;;7.90;99.90;;;;;;5098030;28;20039;-90
2022/01/29 06:08:44;;;;;;;0.03;0.03;;;7.90;99.90;;;;;;5098117;28;20489;-87
2022/01/29 06:11:10;;;;;;;0.10;0.10;;;7.90;99.90;;;;;;5080924;28;20055;-91
2022/01/29 06:13:37;;;;;;;0.03;0.03;;;7.90;99.90;;;;;;5114366;28;20040;-90
2022/01/29 06:16:04;;;;;;;0.57;0.10;;;7.90;99.90;;;;;;5080633;28;20062;-91
2022/01/29 06:18:34;;;;;;;0.10;0.10;;;7.90;99.90;;;;;;5097823;28;20397;-87
2022/01/29 06:21:04;;;;;;;0.00;0.00;;;7.90;99.90;;;;;;5098163;28;20102;-90
2022/01/29 06:23:34;;;;;;;0.10;0.10;;;7.90;99.90;;;;;;5082189;28;20099;-88
2022/01/29 06:26:03;;;;;;;0.00;0.00;;;7.90;99.90;;;;;;5114266;28;20040;-88
2022/01/29 06:28:30;;;;;;;0.38;0.38;;;7.90;99.90;;;;;;5097942;28;20040;-88
2022/01/29 06:30:57;;;;;;;0.00;0.00;;;7.90;99.90;;;;;;5096958;28;20059;-88
2022/01/29 06:33:24;;;;;;;0.00;0.00;;;7.90;99.90;;;;;;5113698;28;20040;-90
2022/01/29 06:35:50;;;;;;;0.08;0.08;;;7.90;99.90;;;;;;5097311;28;20123;-88
2022/01/29 06:38:17;;;;;;;0.05;0.05;;;7.90;99.90;;;;;;5080104;28;20039;-88
2022/01/29 06:40:44;;;;;;;0.20;0.20;;;7.90;99.90;;;;;;5097570;28;20036;-91
2022/01/29 06:43:11;;;;;;;0.10;0.10;;;7.90;99.90;;;;;;5097174;28;20039;-87
2022/01/29 06:45:40;;;;;;;0.10;0.10;;;7.90;99.90;;;;;;5096861;28;20066;-88
2022/01/29 06:48:07;;;;;;;0.10;0.10;;;8.00;99.90;;;;;;5113241;28;20097;-91
2022/01/29 06:50:38;;;;;;;0.10;0.10;;;7.90;99.90;;;;;;5097100;28;20706;-88
2022/01/29 06:53:06;;;;;;;0.05;0.05;;;8.00;99.90;;;;;;5096793;28;20042;-90
2022/01/29 06:55:33;;;;;;;0.10;0.10;;;7.90;99.90;;;;;;5114236;28;20114;-88
2022/01/29 06:58:00;;;;;;;0.45;0.45;;;7.90;99.90;;;;;;5096437;28;20078;-91
2022/01/29 07:00:26;;;;;;;0.00;0.00;;;7.90;99.90;;;;;;5079769;28;20076;-90
2022/01/29 07:02:53;;;;;;;0.10;0.10;;;7.90;99.90;;;;;;5080133;28;20048;-90
2022/01/29 07:05:20;;;;;;;0.10;0.10;;;8.00;99.90;;;;;;5096543;28;20047;-90
2022/01/29 07:07:46;;;;;;;0.00;0.00;;;8.00;99.90;;;;;;5080237;28;20046;-87
2022/01/29 07:10:13;;;;;;;0.00;0.00;;;8.00;99.90;;;;;;5079515;28;20047;-88
2022/01/29 07:12:40;;;;;;;0.05;0.05;;;8.00;99.90;;;;;;5096590;28;20047;-90
2022/01/29 07:15:09;;;;;;;0.10;0.10;;;8.10;99.90;;;;;;5096274;28;20404;-88
2022/01/29 07:17:36;;;;;;;0.17;0.10;;;8.10;99.90;;;;;;5079349;28;20515;-88
2022/01/29 07:20:04;;;;;;;0.00;0.00;;;8.10;99.90;;;;;;5096341;28;20036;-87
2022/01/29 07:22:31;;;;;;;0.10;0.10;;;8.10;99.90;;;;;;5096704;28;20119;-90
2022/01/29 07:24:58;;;;;;;0.10;0.10;;;8.10;99.90;;;;;;5104404;28;20100;-88
2022/01/29 07:27:25;;;;;;;0.10;0.10;;;8.10;99.90;;;;;;5099290;28;20044;-90
2022/01/29 07:29:51;;;;;;;0.00;0.00;;;8.10;99.90;;;;;;5115938;28;20045;-87
2022/01/29 07:32:18;;;;;;;0.00;0.00;;;8.10;99.90;;;;;;5115918;28;20040;-90
2022/01/29 07:34:45;;;;;;;0.00;0.00;;;8.10;99.90;;;;;;5099014;28;20054;-90
2022/01/29 07:37:11;;;;;;;0.20;0.20;;;8.10;99.90;;;;;;5098721;28;20047;-90
2022/01/29 07:39:38;;;;;;;0.00;0.00;;;8.10;99.90;;;;;;5115711;28;20031;-87
2022/01/29 07:42:05;;;;;;;0.08;0.08;;;8.10;99.90;;;;;;5132103;28;20503;-90
2022/01/29 07:44:32;;;;;;;0.10;0.10;;;8.10;99.90;;;;;;5115650;28;20051;-89
2022/01/29 07:46:59;;;;;;;0.00;0.00;;;8.10;99.90;;;;;;5130445;28;20047;-87
2022/01/29 07:49:26;;;;;;;0.10;0.10;;;8.00;99.90;;;;;;5142406;28;20100;-87
2022/01/29 07:51:52;;;;;;;0.00;0.00;;;8.10;99.90;;;;;;5096812;28;20048;-87
2022/01/29 07:54:19;;;;;;;0.10;0.10;;;8.10;99.90;;;;;;5081866;28;20123;-89
2022/01/29 07:56:46;;;;;;;0.10;0.10;;;8.10;99.90;;;;;;5114559;28;20122;-87
2022/01/29 07:59:13;;;;;;;0.10;0.10;;;8.10;99.90;;;;;;5086881;28;20122;-87
2022/01/29 08:01:40;;;;;;;0.00;0.00;;;8.10;99.90;;;;;;5095560;28;20043;-87
2022/01/29 08:04:13;;;;;;;0.20;0.20;;;8.10;99.90;;;;;;5078501;28;20035;-89
2022/01/29 08:06:40;;;;;;;0.03;0.03;;;8.10;99.90;;;;;;5112895;28;20048;-90
2022/01/29 08:09:10;;;;;;;0.08;0.08;;;8.10;99.90;;;;;;5128746;28;20040;-90
2022/01/29 08:11:36;;;;;;;0.00;0.00;;;8.10;99.90;;;;;;5095142;28;20040;-87
2022/01/29 08:14:03;;;;;;;0.03;0.03;;;8.10;99.90;;;;;;5095174;28;20515;-90
2022/01/29 08:16:30;;;;;;;0.10;0.10;;;8.10;99.90;;;;;;5094956;28;20036;-88
2022/01/29 08:18:57;;;;;;;0.10;0.10;;;8.10;99.90;;;;;;5101024;28;20036;-87
2022/01/29 08:21:26;;;;;;;0.10;0.10;;;8.00;99.90;;;;;;5094150;28;20032;-87
2022/01/29 08:23:52;;;;;;;0.10;0.10;;;8.10;99.90;;;;;;5107994;28;20043;-93
2022/01/29 08:26:19;;;;;;;0.10;0.10;;;8.10;99.90;;;;;;5113673;28;20496;-87
2022/01/29 08:28:46;;;;;;;0.00;0.00;;;8.00;99.90;;;;;;5097375;28;20039;-87
2022/01/29 08:31:13;;;;;;;0.10;0.10;;;8.00;99.90;;;;;;5106050;28;20119;-91
2022/01/29 08:33:39;;;;;;;0.10;0.10;;;8.00;99.90;;;;;;5147855;28;20036;-91
2022/01/29 08:36:08;;;;;;;0.28;0.28;;;8.00;99.90;;;;;;5110384;28;20040;-86
2022/01/29 08:38:37;;;;;;;0.00;0.00;;;8.10;99.90;;;;;;5095426;28;20523;-87
2022/01/29 08:41:04;;;;;;;0.00;0.00;;;8.00;99.90;;;;;;5121790;28;20032;-89
2022/01/29 08:43:32;;;;;;;0.00;0.00;;;8.00;99.90;;;;;;5118491;28;20114;-88
2022/01/29 08:45:59;;;;;;;0.00;0.00;;;7.70;99.90;;;;;;5129895;28;20070;-92
2022/01/29 08:48:27;;;;;;;0.35;0.35;;;8.10;99.90;;;;;;5120382;28;20500;-88
2022/01/29 08:50:53;;;;;;;0.10;0.10;;;8.10;99.90;;;;;;5105555;28;20439;-87
2022/01/29 08:53:20;;;;;;;0.00;0.00;;;8.10;99.90;;;;;;5114038;28;20036;-87
2022/01/29 08:55:47;;;;;;;0.00;0.00;;;8.10;99.90;;;;;;5114244;28;20039;-87
2022/01/29 08:58:14;;;;;;;0.00;0.00;;;8.20;99.90;;;;;;5093947;28;20492;-87
2022/01/29 09:00:44;;;;;;;0.10;0.10;;;8.20;99.90;;;;;;5122685;28;20479;-92
2022/01/29 09:03:14;;;;;;;0.10;0.10;;;8.20;99.90;;;;;;5147797;28;20039;-88
2022/01/29 09:05:43;;;;;;;0.10;0.10;;;8.20;99.90;;;;;;5148441;28;20042;-93
2022/01/29 09:08:35;;;;;;;0.00;0.00;;;8.30;99.90;;;;;;5133465;28;20092;-91
2022/01/29 09:11:02;;;;;;;0.00;0.00;;;8.00;99.90;;;;;;5119735;28;20046;-88
2022/01/29 09:13:29;;;;;;;0.10;0.10;;;8.30;99.90;;;;;;5131535;28;20046;-88
2022/01/29 09:15:56;;;;;;;0.00;0.00;;;8.40;99.90;;;;;;5097922;28;20047;-89
2022/01/29 09:18:24;;;;;;;0.08;0.08;;;8.40;99.90;;;;;;5127533;28;20120;-89
2022/01/29 09:20:51;;;;;;;0.10;0.10;;;8.40;99.90;;;;;;5104838;28;20027;-88
2022/01/29 09:23:18;;;;;;;0.03;0.03;;;8.50;99.90;;;;;;5100918;28;20043;-92
2022/01/29 09:25:45;;;;;;;0.10;0.10;;;8.50;99.90;;;;;;5118909;28;20104;-92
2022/01/29 09:28:13;;;;;;;0.45;0.20;;;8.50;99.90;;;;;;5131316;28;20484;-89
2022/01/29 09:30:41;;;;;;;0.00;0.00;;;8.50;99.90;;;;;;5110493;28;20036;-93
2022/01/29 09:33:07;;;;;;;0.10;0.10;;;8.60;99.90;;;;;;5121255;28;20042;-87
2022/01/29 09:35:34;;;;;;;0.00;0.00;;;8.60;99.90;;;;;;5108018;28;20127;-86
2022/01/29 09:38:01;;;;;;;0.08;0.08;;;8.60;99.90;;;;;;5122092;28;20039;-90
2022/01/29 09:40:28;;;;;;;0.08;0.08;;;8.70;99.90;;;;;;5114335;28;20039;-86
2022/01/29 09:42:56;;;;;;;0.10;0.10;;;8.70;99.90;;;;;;5110590;28;20028;-92
2022/01/29 09:45:24;;;;;;;0.00;0.00;;;8.70;99.90;;;;;;5114736;28;20117;-87
2022/01/29 09:48:00;;;;;;;0.00;0.00;;;8.70;99.90;;;;;;5115482;28;20093;-87
2022/01/29 09:50:27;;;;;;;0.00;0.00;;;8.80;99.90;;;;;;5132985;28;20054;-92
2022/01/29 09:52:54;;;;;;;0.10;0.10;;;8.50;99.90;;;;;;5083584;28;20040;-87
2022/01/29 09:55:21;;;;;;;0.00;0.00;;;8.80;99.90;;;;;;5108638;28;20047;-89
2022/01/29 09:57:47;;;;;;;0.00;0.00;;;9.00;99.90;;;;;;5106106;28;20042;-87
2022/01/29 10:00:15;;;;;;;0.00;0.00;;;8.90;99.90;;;;;;5119532;28;20435;-87
2022/01/29 10:02:43;;;;;;;0.10;0.10;;;8.90;99.90;;;;;;5099686;28;20028;-87
2022/01/29 10:05:12;;;;;;;0.00;0.00;;;8.90;99.90;;;;;;5108889;28;20040;-91
2022/01/29 10:07:38;;;;;;;0.00;0.00;;;9.00;99.90;;;;;;5117343;28;20093;-92
2022/01/29 10:10:17;;;;;;;0.00;0.00;;;9.00;99.90;;;;;;5101736;28;20776;-86
2022/01/29 10:12:44;;;;;;;0.10;0.10;;;9.10;99.90;;;;;;5116022;28;20488;-87
2022/01/29 10:15:11;;;;;;;0.00;0.00;;;9.10;99.90;;;;;;5098644;28;20092;-91
2022/01/29 10:17:47;;;;;;;0.10;0.10;;;9.20;99.90;;;;;;5133146;28;20098;-88
2022/01/29 10:20:15;;;;;;;;;;;9.20;99.90;;;;;;5125018;28;20066;-92
2022/01/29 10:22:47;;;;;;;0.00;0.00;;;9.20;99.90;;;;;;5128788;28;20367;-87
2022/01/29 10:25:34;;;;;;;0.00;0.00;;;9.30;99.90;;;;;;5149973;28;20044;-92
2022/01/29 10:28:15;;;;;;;0.00;0.00;;;9.30;99.90;;;;;;5129878;28;20078;-87
2022/01/29 10:30:51;;;;;;;0.10;0.10;;;9.30;99.90;;;;;;5131193;28;20039;-91
2022/01/29 10:33:28;;;;;;;0.10;0.10;;;9.40;99.90;;;;;;5119160;28;20108;-90
2022/01/29 10:35:57;;;;;;;0.10;0.10;;;9.40;99.90;;;;;;5121769;28;20043;-92
2022/01/29 10:38:30;;;;;;;0.00;0.00;;;9.40;99.90;;;;;;5129834;28;20036;-92
2022/01/29 10:41:24;;;;;;;0.10;0.10;;;9.40;99.90;;;;;;5133120;28;20043;-91
2022/01/29 10:44:11;;;;;;;0.00;0.00;;;9.30;99.90;;;;;;5131610;28;20032;-88
2022/01/29 10:46:54;;;;;;;0.00;0.00;;;9.40;99.90;;;;;;5117794;28;20729;-87
2022/01/29 10:49:27;;;;;;;0.10;0.10;;;9.40;99.90;;;;;;5132638;28;20035;-90
2022/01/29 10:52:06;;;;;;;0.00;0.00;;;9.40;99.90;;;;;;5133635;28;20035;-87
2022/01/29 10:54:38;;;;;;;0.05;0.05;;;9.40;99.90;;;;;;5133035;28;20039;-92
2022/01/29 10:57:08;;;;;;;0.00;0.00;;;9.40;99.90;;;;;;5133167;28;20500;-90
2022/01/29 10:59:45;;;;;;;0.00;0.00;;;9.40;99.90;;;;;;5128397;28;20054;-88
2022/01/29 11:02:12;;;;;;;0.00;0.00;;;9.40;99.90;;;;;;5108379;28;20519;-92
2022/01/29 11:04:41;;;;;;;0.03;0.03;;;8.90;99.90;;;;;;5130964;28;20598;-89
2022/01/29 11:07:17;;;;;;;0.00;0.00;;;9.40;99.90;;;;;;5124033;28;20039;-91
2022/01/29 11:09:47;;;;;;;0.10;0.10;;;9.40;99.90;;;;;;5103797;28;20054;-88
2022/01/29 11:12:19;;;;;;;0.00;0.00;;;9.40;99.90;;;;;;5116913;28;20035;-88
2022/01/29 11:14:47;;;;;;;0.08;0.08;;;9.10;99.90;;;;;;5127249;28;20162;-87
2022/01/29 11:17:18;;;;;;;0.10;0.10;;;9.40;99.90;;;;;;5131912;28;20036;-86
2022/01/29 11:19:46;;;;;;;0.10;0.10;;;9.50;99.90;;;;;;5132684;28;20032;-92
2022/01/29 11:22:18;;;;;;;0.03;0.03;;;9.50;99.90;;;;;;5125945;28;20040;-92
2022/01/29 11:24:47;;;;;;;0.00;0.00;;;9.50;99.90;;;;;;5129049;28;20497;-92
2022/01/29 11:27:34;;;;;;;0.00;0.00;;;9.50;99.90;;;;;;5112260;28;20122;-86
2022/01/29 11:30:21;;;;;;;0.00;0.00;;;9.50;99.90;;;;;;5119506;28;20040;-88
2022/01/29 11:32:54;;;;;;;0.10;0.10;;;9.50;99.90;;;;;;5126943;28;20047;-92
2022/01/29 11:35:22;;;;;;;0.10;0.10;;;9.50;99.90;;;;;;5116811;28;20050;-87
2022/01/29 11:37:48;;;;;;;0.00;0.00;;;9.60;99.90;;;;;;5132401;28;20047;-92
2022/01/29 11:40:23;;;;;;;0.00;0.00;;;9.60;99.90;;;;;;5143584;28;20602;-87
2022/01/29 11:43:00;;;;;;;0.00;0.00;;;9.60;99.90;;;;;;5124604;28;20550;-87
2022/01/29 11:45:35;;;;;;;0.10;0.10;;;9.70;99.90;;;;;;5131345;28;20135;-88
2022/01/29 11:48:02;;;;;;;0.00;0.00;;;9.60;99.90;;;;;;5131750;28;20059;-88
2022/01/29 11:50:32;;;;;;;0.00;0.00;;;9.60;99.90;;;;;;5121010;28;20128;-87
2022/01/29 11:53:01;;;;;;;0.10;0.10;;;9.70;99.90;;;;;;5115719;28;20047;-91
2022/01/29 11:55:37;;;;;;;0.00;0.00;;;9.70;99.90;;;;;;5129161;28;20059;-88
2022/01/29 11:58:12;;;;;;;0.00;0.00;;;9.70;99.90;;;;;;5132377;28;20047;-91
2022/01/29 12:00:40;;;;;;;0.08;0.08;;;9.70;99.90;;;;;;5149270;28;20040;-92
2022/01/29 12:03:07;;;;;;;0.00;0.00;;;9.70;99.90;;;;;;5111479;28;20537;-91
2022/01/29 12:09:07;;;;;;;0.00;0.00;;;9.70;99.90;;;;;;5143337;28;20109;-92
2022/01/29 12:11:37;;;;;;;0.00;0.00;;;9.70;99.90;;;;;;5132507;28;20557;-87
2022/01/29 12:14:16;;;;;;;0.08;0.08;;;9.70;99.90;;;;;;5116917;28;20036;-93
2022/01/29 12:16:54;;;;;;;0.00;0.00;;;9.70;99.90;;;;;;5131252;28;20128;-90
2022/01/29 12:19:37;;;;;;;0.00;0.00;;;9.80;99.90;;;;;;5132789;28;20035;-88
2022/01/29 12:22:19;;;;;;;0.00;0.00;;;9.70;99.90;;;;;;5132311;28;20062;-92
2022/01/29 12:25:02;;;;;;;0.00;0.00;;;9.50;99.90;;;;;;5131337;28;20048;-89
2022/01/29 12:27:51;;;;;;;0.00;0.00;;;9.90;99.90;;;;;;5114725;28;20358;-91
2022/01/29 12:30:24;;;;;;;0.00;0.00;;;9.60;99.90;;;;;;5131374;28;20399;-88
2022/01/29 12:33:16;;;;;;;0.00;0.00;;;10.00;99.90;;;;;;5130673;28;20173;-92
2022/01/29 12:35:48;;;;;;;0.00;0.00;;;9.50;99.90;;;;;;5130588;28;20059;-87
2022/01/29 12:38:25;;;;;;;0.00;0.00;;;10.00;99.90;;;;;;5131259;28;20250;-87
2022/01/29 12:40:56;;;;;;;0.05;0.05;;;10.00;99.90;;;;;;5131047;28;20491;-92
2022/01/29 12:43:51;;;;;;;0.00;0.00;;;10.00;99.90;;;;;;5132576;28;20035;-87
2022/01/29 12:46:20;;;;;;;0.00;0.00;;;9.90;99.90;;;;;;5131231;28;20438;-91
2022/01/29 12:49:06;;;;;;;0.00;0.00;;;10.10;99.90;;;;;;5129627;28;20036;-88
2022/01/29 12:51:34;;;;;;;0.00;0.00;;;10.10;99.90;;;;;;5115826;28;20032;-87
2022/01/29 12:54:08;;;;;;;0.10;0.10;;;10.20;99.90;;;;;;5126063;28;20070;-92
2022/01/29 12:56:37;;;;;;;0.15;0.10;;;10.20;99.90;;;;;;5131492;28;20472;-88
2022/01/29 12:59:09;;;;;;;0.00;0.00;;;10.20;99.90;;;;;;5130872;28;20114;-87
2022/01/29 13:01:37;;;;;;;0.00;0.00;;;10.20;99.90;;;;;;5131069;28;20101;-90
2022/01/29 13:04:23;;;;;;;0.00;0.00;;;10.30;99.90;;;;;;5114694;28;20135;-90
2022/01/29 13:07:07;;;;;;;0.00;0.00;;;10.30;99.90;;;;;;5113935;28;20044;-88
2022/01/29 13:09:37;;;;;;;0.00;0.00;;;10.40;99.90;;;;;;5131036;28;20625;-92
2022/01/29 13:12:12;;;;;;;0.00;0.00;;;10.40;99.90;;;;;;5099786;28;20036;-92
2022/01/29 13:14:39;;;;;;;0.00;0.00;;;10.40;99.90;;;;;;5128637;28;20395;-88
2022/01/29 13:17:08;;;;;;;0.05;0.05;;;10.50;99.90;;;;;;5097352;28;20040;-88
2022/01/29 13:19:41;;;;;;;0.00;0.00;;;10.50;99.90;;;;;;5130952;28;20044;-90
2022/01/29 13:22:09;;;;;;;0.00;0.00;;;10.50;99.90;;;;;;5119349;28;20123;-89
2022/01/29 13:24:41;;;;;;;0.10;0.10;;;10.50;99.90;;;;;;5092740;28;20134;-90
2022/01/29 13:27:14;;;;;;;0.00;0.00;;;10.60;99.90;;;;;;5126565;28;20450;-86